createdAt,value
2019-04-28T00:02:22.453Z,97958.02
2019-04-28T00:04:54.472Z,97951.08
2019-04-28T00:07:27.045Z,97956.34
2019-04-28T00:10:00.985Z,97951.56
2019-04-28T00:12:33.387Z,97948.83
2019-04-28T00:15:05.782Z,97960.69
2019-04-28T00:17:37.735Z,97956.03
2019-04-28T00:20:13.534Z,97961.31
2019-04-28T00:22:53.825Z,97952.58
2019-04-28T00:25:29.009Z,97954.92
2019-04-28T00:28:01.732Z,97957.15
2019-04-28T00:30:33.666Z,97946.64
2019-04-28T00:33:05.718Z,97950.07
2019-04-28T00:35:37.996Z,97948.22
2019-04-28T00:38:11.313Z,97944.96
2019-04-28T00:40:43.607Z,97952.70
2019-04-28T00:43:15.881Z,97948.40
2019-04-28T00:45:47.830Z,97949.43
2019-04-28T00:48:20.948Z,97946.65
2019-04-28T00:50:53.688Z,97945.00
2019-04-28T00:53:25.833Z,97945.84
2019-04-28T00:55:57.832Z,97945.98
2019-04-28T00:58:31.836Z,97950.16
2019-04-28T01:01:08.851Z,97946.03
2019-04-28T01:03:42.090Z,97950.82
2019-04-28T01:06:14.194Z,97954.22
2019-04-28T01:08:46.378Z,97954.56
2019-04-28T01:11:18.346Z,97962.19
2019-04-28T01:13:51.784Z,97967.02
2019-04-28T01:16:40.046Z,97968.31
2019-04-28T01:19:20.092Z,97970.55
2019-04-28T01:22:22.828Z,97972.02
2019-04-28T01:24:55.168Z,97972.97
2019-04-28T01:27:50.567Z,97973.41
2019-04-28T01:30:41.175Z,97970.44
2019-04-28T01:33:35.110Z,97974.73
2019-04-28T01:36:07.201Z,97981.93
2019-04-28T01:38:40.171Z,97981.89
2019-04-28T01:41:14.791Z,97990.21
2019-04-28T01:43:46.747Z,97993.12
2019-04-28T01:46:19.890Z,97997.75
2019-04-28T01:48:51.872Z,97996.20
2019-04-28T01:51:23.791Z,97999.39
2019-04-28T01:53:56.123Z,97997.83
2019-04-28T01:56:30.413Z,97999.22
2019-04-28T01:59:02.392Z,97996.45
2019-04-28T02:01:34.727Z,97997.86
2019-04-28T02:04:07.106Z,97997.85
2019-04-28T02:06:41.373Z,97999.95
2019-04-28T02:09:13.747Z,97997.75
2019-04-28T02:11:45.658Z,97996.48
2019-04-28T02:14:19.563Z,97994.38
2019-04-28T02:16:51.575Z,98000.47
2019-04-28T02:19:24.328Z,97997.84
2019-04-28T02:22:20.184Z,97994.95
2019-04-28T02:24:53.262Z,97999.25
2019-04-28T02:27:25.666Z,97998.09
2019-04-28T02:30:00.069Z,97995.42
2019-04-28T02:32:32.589Z,97999.13
2019-04-28T02:35:04.781Z,98004.25
2019-04-28T02:37:36.730Z,98005.48
2019-04-28T02:40:10.566Z,98007.61
2019-04-28T02:42:42.978Z,98001.07
2019-04-28T02:45:21.929Z,97999.62
2019-04-28T02:47:56.953Z,97991.31
2019-04-28T02:50:35.171Z,97989.80
2019-04-28T02:53:24.685Z,97991.30
2019-04-28T02:55:57.404Z,97990.27
2019-04-28T02:58:31.248Z,97988.87
2019-04-28T03:01:12.818Z,97993.22
2019-04-28T03:03:37.755Z,97998.59
2019-04-28T03:06:10.814Z,97998.91
2019-04-28T03:08:42.920Z,98011.56
2019-04-28T03:11:14.967Z,98016.14
2019-04-28T03:13:46.976Z,98020.52
2019-04-28T03:16:20.863Z,98022.22
2019-04-28T03:18:53.233Z,98032.50
2019-04-28T03:21:25.684Z,98026.31
2019-04-28T03:23:57.590Z,98025.98
2019-04-28T03:26:37.148Z,98024.95
2019-04-28T03:29:30.901Z,98031.83
2019-04-28T03:32:28.835Z,98029.95
2019-04-28T03:34:43.871Z,98037.11
2019-04-28T03:37:16.293Z,98035.64
2019-04-28T03:39:50.455Z,98036.41
2019-04-28T03:42:23.020Z,98038.08
2019-04-28T03:44:57.044Z,98037.56
2019-04-28T03:47:31.120Z,98034.77
2019-04-28T03:50:03.450Z,98039.53
2019-04-28T03:52:35.720Z,98043.00
2019-04-28T03:55:07.881Z,98046.25
2019-04-28T03:57:41.266Z,98043.00
2019-04-28T04:00:13.979Z,98048.34
2019-04-28T04:02:45.922Z,98046.10
2019-04-28T04:05:20.623Z,98045.21
2019-04-28T04:07:52.163Z,98041.23
2019-04-28T04:11:00.244Z,98042.91
2019-04-28T04:13:43.678Z,98045.69
2019-04-28T04:16:25.456Z,98050.34
2019-04-28T04:19:00.757Z,98046.34
2019-04-28T04:21:32.403Z,98047.60
2019-04-28T04:24:04.602Z,98044.75
2019-04-28T04:26:36.509Z,98045.22
2019-04-28T04:29:10.166Z,98046.31
2019-04-28T04:31:42.895Z,98048.58
2019-04-28T04:34:15.169Z,98050.37
2019-04-28T04:36:47.117Z,98044.94
2019-04-28T04:39:20.658Z,98047.83
2019-04-28T04:41:52.741Z,98050.33
2019-04-28T04:44:24.689Z,98044.38
2019-04-28T04:46:57.378Z,98046.22
2019-04-28T04:49:31.605Z,98048.73
2019-04-28T04:52:03.011Z,98050.05
2019-04-28T04:54:36.843Z,98054.69
2019-04-28T04:57:11.117Z,98048.27
2019-04-28T04:59:43.116Z,98057.86
2019-04-28T05:02:44.841Z,98055.63
2019-04-28T05:05:32.719Z,98058.38
2019-04-28T05:08:06.509Z,98065.55
2019-04-28T05:10:40.381Z,98066.70
2019-04-28T05:13:12.367Z,98072.21
2019-04-28T05:15:44.736Z,98078.05
2019-04-28T05:18:17.065Z,98080.41
2019-04-28T05:20:50.476Z,98083.91
2019-04-28T05:23:31.539Z,98084.56
2019-04-28T05:26:08.036Z,98092.09
2019-04-28T05:28:43.907Z,98092.03
2019-04-28T05:31:13.573Z,98090.45
2019-04-28T05:33:44.690Z,98091.84
2019-04-28T05:36:16.717Z,98093.47
2019-04-28T05:38:49.621Z,98092.68
2019-04-28T05:41:21.686Z,98095.06
2019-04-28T05:43:53.909Z,98096.92
2019-04-28T05:46:25.862Z,98102.84
2019-04-28T05:49:07.394Z,98100.69
2019-04-28T05:51:41.397Z,98102.38
2019-04-28T05:54:33.812Z,98109.20
2019-04-28T05:57:23.268Z,98110.70
2019-04-28T06:00:14.316Z,98109.25
2019-04-28T06:02:56.475Z,98111.16
2019-04-28T06:05:22.534Z,98111.26
2019-04-28T06:08:20.227Z,98107.95
2019-04-28T06:10:52.449Z,98106.84
2019-04-28T06:13:24.414Z,98110.18
2019-04-28T06:15:56.634Z,98107.77
2019-04-28T06:18:28.581Z,98106.58
2019-04-28T06:21:01.353Z,98099.36
2019-04-28T06:23:33.722Z,98105.58
2019-04-28T06:26:06.384Z,98105.66
2019-04-28T06:28:38.344Z,98099.14
2019-04-28T06:31:10.670Z,98101.05
2019-04-28T06:33:44.605Z,98107.11
2019-04-28T06:36:16.609Z,98100.12
2019-04-28T06:38:48.988Z,98106.09
2019-04-28T06:41:21.321Z,98102.19
2019-04-28T06:43:53.598Z,98104.72
2019-04-28T06:46:25.518Z,98107.91
2019-04-28T06:48:57.445Z,98105.52
2019-04-28T06:51:29.819Z,98107.45
2019-04-28T06:54:02.194Z,98111.17
2019-04-28T06:56:35.210Z,98102.70
2019-04-28T06:59:07.724Z,98106.34
2019-04-28T07:01:39.634Z,98103.48
2019-04-28T07:04:11.894Z,98101.63
2019-04-28T07:06:44.568Z,98106.27
2019-04-28T07:09:17.059Z,98105.75
2019-04-28T07:11:49.543Z,98103.29
2019-04-28T07:14:21.925Z,98101.20
2019-04-28T07:16:53.839Z,98104.94
2019-04-28T07:19:25.798Z,98105.68
2019-04-28T07:22:23.159Z,98109.71
2019-04-28T07:24:56.027Z,98106.58
2019-04-28T07:27:27.943Z,98108.02
2019-04-28T07:30:00.629Z,98105.13
2019-04-28T07:32:32.618Z,98102.58
2019-04-28T07:35:05.218Z,98105.93
2019-04-28T07:37:37.556Z,98115.47
2019-04-28T07:40:09.623Z,98113.83
2019-04-28T07:42:41.534Z,98115.97
2019-04-28T07:45:14.027Z,98119.91
2019-04-28T07:47:46.446Z,98122.77
2019-04-28T07:50:18.617Z,98123.23
2019-04-28T07:52:55.479Z,98127.20
2019-04-28T07:55:28.186Z,98127.08
2019-04-28T07:58:00.411Z,98132.22
2019-04-28T08:00:32.737Z,98138.08
2019-04-28T08:03:04.663Z,98145.84
2019-04-28T08:05:36.931Z,98144.78
2019-04-28T08:08:09.589Z,98147.00
2019-04-28T08:10:41.523Z,98144.23
2019-04-28T08:13:15.885Z,98146.25
2019-04-28T08:15:47.507Z,98152.25
2019-04-28T08:18:20.382Z,98152.97
2019-04-28T08:20:52.343Z,98151.23
2019-04-28T08:23:24.247Z,98150.99
2019-04-28T08:25:56.287Z,98148.37
2019-04-28T08:28:28.192Z,98151.86
2019-04-28T08:31:00.139Z,98144.76
2019-04-28T08:33:38.142Z,98151.91
2019-04-28T08:36:10.104Z,98144.92
2019-04-28T08:38:42.946Z,98142.34
2019-04-28T08:41:14.898Z,98145.08
2019-04-28T08:43:47.358Z,98146.55
2019-04-28T08:46:20.230Z,98140.17
2019-04-28T08:48:52.587Z,98131.16
2019-04-28T08:51:24.969Z,98132.73
2019-04-28T08:53:56.925Z,98129.21
2019-04-28T08:56:29.318Z,98126.63
2019-04-28T08:59:01.400Z,98123.27
2019-04-28T09:01:33.936Z,98126.45
2019-04-28T09:04:15.110Z,98132.84
2019-04-28T09:06:48.366Z,98140.47
2019-04-28T09:09:22.074Z,98138.35
2019-04-28T09:11:56.709Z,98143.98
2019-04-28T09:14:31.684Z,98154.20
2019-04-28T09:17:03.808Z,98149.66
2019-04-28T09:19:36.734Z,98146.15
2019-04-28T09:22:09.342Z,98141.67
2019-04-28T09:24:41.724Z,98138.47
2019-04-28T09:27:15.245Z,98130.99
2019-04-28T09:29:47.697Z,98130.88
2019-04-28T09:32:20.860Z,98125.27
2019-04-28T09:34:53.364Z,98123.52
2019-04-28T09:37:26.562Z,98120.92
2019-04-28T09:40:08.753Z,98123.63
2019-04-28T09:43:19.717Z,98125.45
2019-04-28T09:45:54.822Z,98119.52
2019-04-28T09:48:27.668Z,98115.31
2019-04-28T09:51:00.187Z,98118.45
2019-04-28T09:53:32.687Z,98117.12
2019-04-28T09:56:05.107Z,98118.56
2019-04-28T09:58:38.604Z,98123.08
2019-04-28T10:01:11.003Z,98115.70
2019-04-28T10:03:43.176Z,98112.59
2019-04-28T10:06:15.428Z,98119.45
2019-04-28T10:08:47.509Z,98117.23
2019-04-28T10:11:30.008Z,98113.95
2019-04-28T10:13:57.062Z,98115.81
2019-04-28T10:16:29.611Z,98106.98
2019-04-28T10:19:02.573Z,98105.16
2019-04-28T10:21:37.018Z,98104.25
2019-04-28T10:24:10.276Z,98107.45
2019-04-28T10:26:42.780Z,98107.45
2019-04-28T10:29:15.246Z,98101.88
2019-04-28T10:31:48.156Z,98101.31
2019-04-28T10:34:20.618Z,98105.07
2019-04-28T10:36:53.009Z,98105.66
2019-04-28T10:39:37.179Z,98104.48
2019-04-28T10:42:09.785Z,98112.92
2019-04-28T10:44:46.146Z,98113.70
2019-04-28T10:47:19.547Z,98115.58
2019-04-28T10:49:52.093Z,98121.20
2019-04-28T10:52:24.912Z,98117.56
2019-04-28T10:54:57.848Z,98118.52
2019-04-28T10:57:30.415Z,98115.70
2019-04-28T11:00:03.612Z,98117.30
2019-04-28T11:02:37.156Z,98116.38
2019-04-28T11:05:17.547Z,98115.04
2019-04-28T11:07:52.521Z,98104.58
2019-04-28T11:10:26.045Z,98109.55
2019-04-28T11:12:58.514Z,98106.80
2019-04-28T11:15:36.047Z,98107.39
2019-04-28T11:18:10.208Z,98101.66
2019-04-28T11:20:42.319Z,98106.21
2019-04-28T11:23:14.815Z,98101.79
2019-04-28T11:25:47.250Z,98105.86
2019-04-28T11:28:21.948Z,98105.70
2019-04-28T11:30:57.375Z,98110.75
2019-04-28T11:33:55.063Z,98107.90
2019-04-28T11:36:28.060Z,98108.14
2019-04-28T11:39:00.773Z,98100.72
2019-04-28T11:41:33.211Z,98100.12
2019-04-28T11:44:06.228Z,98102.78
2019-04-28T11:46:38.343Z,98099.39
2019-04-28T11:49:10.481Z,98099.43
2019-04-28T11:51:42.969Z,98100.59
2019-04-28T11:54:15.168Z,98097.20
2019-04-28T11:56:48.033Z,98097.93
2019-04-28T11:59:21.010Z,98092.84
2019-04-28T12:01:53.647Z,98094.36
2019-04-28T12:04:26.102Z,98088.30
2019-04-28T12:06:58.539Z,98086.78
2019-04-28T12:09:49.919Z,98078.73
2019-04-28T12:12:32.040Z,98081.36
2019-04-28T12:15:21.320Z,98081.22
2019-04-28T12:18:20.532Z,98084.19
2019-04-28T12:20:53.047Z,98074.27
2019-04-28T12:23:25.165Z,98071.89
2019-04-28T12:25:59.327Z,98072.53
2019-04-28T12:28:31.752Z,98065.58
2019-04-28T12:31:04.151Z,98062.28
2019-04-28T12:33:37.199Z,98060.16
2019-04-28T12:36:12.274Z,98054.21
2019-04-28T12:38:45.065Z,98045.24
2019-04-28T12:41:17.644Z,98038.50
2019-04-28T12:43:49.763Z,98041.56
2019-04-28T12:46:21.834Z,98040.68
2019-04-28T12:48:56.735Z,98033.96
2019-04-28T12:51:28.814Z,98034.55
2019-04-28T12:54:04.418Z,98032.78
2019-04-28T12:56:37.388Z,98030.16
2019-04-28T12:59:17.775Z,98031.17
2019-04-28T13:02:08.710Z,98030.33
2019-04-28T13:04:44.957Z,98034.36
2019-04-28T13:07:17.032Z,98035.02
2019-04-28T13:09:49.152Z,98035.88
2019-04-28T13:12:21.218Z,98033.35
2019-04-28T13:14:53.636Z,98037.95
2019-04-28T13:17:26.139Z,98039.41
2019-04-28T13:19:58.250Z,98036.86
2019-04-28T13:22:31.282Z,98026.20
2019-04-28T13:25:03.643Z,98020.11
2019-04-28T13:27:36.459Z,98015.19
2019-04-28T13:30:10.123Z,98014.09
2019-04-28T13:32:42.617Z,98018.35
2019-04-28T13:35:15.044Z,98012.44
2019-04-28T13:37:47.195Z,98006.03
2019-04-28T13:40:25.485Z,98000.66
2019-04-28T13:42:57.556Z,97996.81
2019-04-28T13:45:30.411Z,97994.70
2019-04-28T13:48:04.231Z,97992.66
2019-04-28T13:50:42.817Z,97987.03
2019-04-28T13:53:16.058Z,97979.11
2019-04-28T13:56:01.696Z,97981.25
2019-04-28T13:58:37.555Z,97982.14
2019-04-28T14:01:22.963Z,97984.98
2019-04-28T14:04:07.356Z,97983.98
2019-04-28T14:06:42.813Z,97984.00
2019-04-28T14:09:17.014Z,97982.50
2019-04-28T14:11:49.389Z,97979.11
2019-04-28T14:14:21.553Z,97983.52
2019-04-28T14:16:53.764Z,97978.03
2019-04-28T14:19:25.859Z,97975.29
2019-04-28T14:21:57.883Z,97972.45
2019-04-28T14:24:30.419Z,97975.19
2019-04-28T14:27:02.488Z,97973.20
2019-04-28T14:29:34.548Z,97979.48
2019-04-28T14:32:07.129Z,97976.56
2019-04-28T14:34:40.243Z,97972.52
2019-04-28T14:37:15.105Z,97972.90
2019-04-28T14:39:47.143Z,97974.22
2019-04-28T14:42:19.949Z,97977.89
2019-04-28T14:44:53.144Z,97975.34
2019-04-28T14:47:25.223Z,97972.95
2019-04-28T14:49:57.362Z,97975.14
2019-04-28T14:52:29.426Z,97979.97
2019-04-28T14:55:02.354Z,97976.41
2019-04-28T14:57:35.879Z,97974.63
2019-04-28T15:00:13.444Z,97980.70
2019-04-28T15:02:59.276Z,97979.16
2019-04-28T15:05:50.217Z,97977.98
2019-04-28T15:08:30.532Z,97980.95
2019-04-28T15:11:24.349Z,97983.20
2019-04-28T15:13:56.487Z,97981.45
2019-04-28T15:16:36.058Z,97980.52
2019-04-28T15:19:08.776Z,97979.94
2019-04-28T15:21:41.748Z,97975.34
2019-04-28T15:24:13.823Z,97970.26
2019-04-28T15:26:46.251Z,97969.94
2019-04-28T15:29:24.058Z,97975.38
2019-04-28T15:32:14.074Z,97974.74
2019-04-28T15:34:54.112Z,97976.83
2019-04-28T15:37:38.533Z,97971.83
2019-04-28T15:40:13.328Z,97971.97
2019-04-28T15:42:45.411Z,97979.25
2019-04-28T15:45:18.037Z,97979.21
2019-04-28T15:47:50.523Z,97981.22
2019-04-28T15:50:25.245Z,97987.13
2019-04-28T15:52:58.036Z,97987.91
2019-04-28T15:55:46.201Z,97991.61
2019-04-28T15:58:32.072Z,97987.73
2019-04-28T16:01:05.475Z,97988.58
2019-04-28T16:03:38.539Z,97994.20
2019-04-28T16:06:11.459Z,97997.03
2019-04-28T16:08:43.684Z,97993.94
2019-04-28T16:11:16.820Z,97999.34
2019-04-28T16:13:50.500Z,98005.63
2019-04-28T16:16:24.837Z,97995.65
2019-04-28T16:18:57.364Z,97997.97
2019-04-28T16:21:30.166Z,97999.36
2019-04-28T16:24:02.284Z,98002.84
2019-04-28T16:26:34.357Z,98004.20
2019-04-28T16:29:07.401Z,98001.97
2019-04-28T16:31:39.863Z,98001.16
2019-04-28T16:34:12.829Z,98001.30
2019-04-28T16:36:44.908Z,97995.72
2019-04-28T16:39:17.036Z,97997.79
2019-04-28T16:42:03.905Z,97997.92
2019-04-28T16:44:42.505Z,98005.14
2019-04-28T16:47:15.337Z,98008.80
2019-04-28T16:49:48.619Z,98007.82
2019-04-28T16:52:20.793Z,98008.94
2019-04-28T16:55:12.821Z,98008.22
2019-04-28T16:58:10.644Z,98009.11
2019-04-28T17:01:08.353Z,98008.94
2019-04-28T17:03:40.469Z,98013.30
2019-04-28T17:06:12.877Z,98019.07
2019-04-28T17:08:45.444Z,98017.79
2019-04-28T17:11:18.520Z,98018.41
2019-04-28T17:13:50.896Z,98029.48
2019-04-28T17:16:24.443Z,98019.37
2019-04-28T17:18:56.934Z,98016.52
2019-04-28T17:21:29.796Z,98020.44
2019-04-28T17:24:02.293Z,98023.78
2019-04-28T17:26:34.406Z,98026.80
2019-04-28T17:29:07.115Z,98033.61
2019-04-28T17:31:39.655Z,98038.69
2019-04-28T17:34:12.042Z,98033.58
2019-04-28T17:36:44.592Z,98035.47
2019-04-28T17:39:21.346Z,98035.03
2019-04-28T17:41:53.901Z,98035.27
2019-04-28T17:44:26.734Z,98033.73
2019-04-28T17:46:59.889Z,98032.97
2019-04-28T17:49:37.277Z,98037.68
2019-04-28T17:52:11.059Z,98046.26
2019-04-28T17:54:43.808Z,98051.72
2019-04-28T17:57:15.935Z,98049.95
2019-04-28T17:59:50.034Z,98053.56
2019-04-28T18:02:44.313Z,98051.34
2019-04-28T18:05:28.930Z,98054.11
2019-04-28T18:08:04.349Z,98059.89
2019-04-28T18:10:37.591Z,98056.28
2019-04-28T18:13:10.097Z,98066.84
2019-04-28T18:16:01.855Z,98066.28
2019-04-28T18:18:43.231Z,98059.66
2019-04-28T18:21:15.765Z,98064.67
2019-04-28T18:23:47.816Z,98069.12
2019-04-28T18:26:20.304Z,98073.94
2019-04-28T18:28:52.737Z,98072.09
2019-04-28T18:31:52.544Z,98078.34
2019-04-28T18:34:35.346Z,98083.86
2019-04-28T18:37:29.072Z,98081.62
2019-04-28T18:40:07.751Z,98088.86
2019-04-28T18:42:58.500Z,98092.89
2019-04-28T18:45:30.888Z,98096.76
2019-04-28T18:48:03.664Z,98100.61
2019-04-28T18:50:35.615Z,98100.09
2019-04-28T18:53:07.636Z,98105.65
2019-04-28T18:55:39.957Z,98109.51
2019-04-28T18:58:11.871Z,98115.30
2019-04-28T19:00:49.014Z,98120.59
2019-04-28T19:03:21.684Z,98123.00
2019-04-28T19:05:54.223Z,98127.75
2019-04-28T19:08:49.036Z,98135.88
2019-04-28T19:11:39.845Z,98132.86
2019-04-28T19:14:18.361Z,98135.70
2019-04-28T19:17:09.163Z,98135.75
2019-04-28T19:19:41.585Z,98136.98
2019-04-28T19:22:13.850Z,98139.06
2019-04-28T19:24:46.186Z,98141.11
2019-04-28T19:27:18.141Z,98140.67
2019-04-28T19:29:50.382Z,98146.20
2019-04-28T19:32:22.651Z,98147.63
2019-04-28T19:34:55.417Z,98149.03
2019-04-28T19:37:27.793Z,98150.64
2019-04-28T19:40:00.458Z,98155.03
2019-04-28T19:42:33.154Z,98156.64
2019-04-28T19:45:07.232Z,98156.48
2019-04-28T19:47:39.926Z,98155.13
2019-04-28T19:50:12.463Z,98160.12
2019-04-28T19:52:44.819Z,98164.41
2019-04-28T19:55:27.318Z,98167.98
2019-04-28T19:58:20.855Z,98170.02
2019-04-28T20:00:56.663Z,98165.44
2019-04-28T20:03:28.434Z,98162.17
2019-04-28T20:06:00.744Z,98164.03
2019-04-28T20:08:33.609Z,98165.77
2019-04-28T20:11:05.950Z,98165.77
2019-04-28T20:13:38.224Z,98165.14
2019-04-28T20:16:10.166Z,98167.87
2019-04-28T20:18:44.075Z,98160.64
2019-04-28T20:21:16.096Z,98160.64
2019-04-28T20:23:48.038Z,98164.58
2019-04-28T20:26:20.281Z,98169.04
2019-04-28T20:28:52.753Z,98179.78
2019-04-28T20:31:25.313Z,98181.47
2019-04-28T20:33:57.594Z,98175.73
2019-04-28T20:36:48.769Z,98178.12
2019-04-28T20:39:28.362Z,98177.43
2019-04-28T20:42:18.011Z,98181.19
2019-04-28T20:44:51.039Z,98185.91
2019-04-28T20:47:23.813Z,98184.73
2019-04-28T20:49:56.172Z,98191.45
2019-04-28T20:52:28.822Z,98194.93
2019-04-28T20:55:01.864Z,98193.44
2019-04-28T20:57:34.242Z,98193.38
2019-04-28T21:00:07.123Z,98197.15
2019-04-28T21:02:39.826Z,98195.58
2019-04-28T21:05:12.733Z,98201.17
2019-04-28T21:07:45.127Z,98200.84
2019-04-28T21:10:17.181Z,98201.70
2019-04-28T21:12:49.123Z,98203.14
2019-04-28T21:15:21.506Z,98204.31
2019-04-28T21:17:53.887Z,98202.83
2019-04-28T21:20:25.857Z,98201.91
2019-04-28T21:22:57.802Z,98200.59
2019-04-28T21:25:29.766Z,98206.26
2019-04-28T21:28:01.717Z,98209.73
2019-04-28T21:30:34.119Z,98206.72
2019-04-28T21:33:06.916Z,98207.45
2019-04-28T21:35:38.873Z,98206.77
2019-04-28T21:38:11.569Z,98204.06
2019-04-28T21:40:44.779Z,98204.37
2019-04-28T21:43:34.696Z,98203.22
2019-04-28T21:46:28.857Z,98209.08
2019-04-28T21:49:03.478Z,98206.58
2019-04-28T21:51:35.854Z,98210.77
2019-04-28T21:54:08.441Z,98207.42
2019-04-28T21:56:40.386Z,98207.16
2019-04-28T21:59:13.037Z,98209.18
2019-04-28T22:01:45.610Z,98208.68
2019-04-28T22:04:17.527Z,98207.88
2019-04-28T22:06:49.570Z,98212.01
2019-04-28T22:09:21.481Z,98213.09
2019-04-28T22:11:54.161Z,98214.17
2019-04-28T22:14:26.082Z,98215.73
2019-04-28T22:16:58.463Z,98210.22
2019-04-28T22:19:31.361Z,98215.75
2019-04-28T22:22:03.339Z,98217.18
2019-04-28T22:24:46.967Z,98219.34
2019-04-28T22:27:27.543Z,98220.84
2019-04-28T22:29:59.462Z,98223.09
2019-04-28T22:32:31.728Z,98222.55
2019-04-28T22:35:04.650Z,98226.20
2019-04-28T22:37:36.616Z,98225.37
2019-04-28T22:40:09.373Z,98230.26
2019-04-28T22:42:41.316Z,98229.20
2019-04-28T22:45:14.317Z,98233.53
2019-04-28T22:47:46.357Z,98230.91
2019-04-28T22:50:52.610Z,98233.20
2019-04-28T22:53:30.951Z,98237.98
2019-04-28T22:56:10.818Z,98241.63
2019-04-28T22:58:56.794Z,98234.08
2019-04-28T23:01:35.790Z,98234.80
2019-04-28T23:04:27.787Z,98230.16
2019-04-28T23:07:00.245Z,98223.58
2019-04-28T23:09:32.721Z,98225.66
2019-04-28T23:12:05.158Z,98225.48
2019-04-28T23:14:38.306Z,98230.72
2019-04-28T23:17:12.682Z,98225.19
2019-04-28T23:19:45.070Z,98223.20
2019-04-28T23:22:46.203Z,98224.37
2019-04-28T23:25:09.686Z,98232.97
2019-04-28T23:27:42.039Z,98226.45
2019-04-28T23:30:33.786Z,98227.42
2019-04-28T23:33:07.093Z,98233.67
2019-04-28T23:35:39.329Z,98229.19
2019-04-28T23:38:11.893Z,98223.59
2019-04-28T23:41:02.464Z,98226.63
2019-04-28T23:43:34.419Z,98225.21
2019-04-28T23:46:06.680Z,98224.06
2019-04-28T23:48:38.917Z,98222.88
2019-04-28T23:51:18.788Z,98223.50
2019-04-28T23:53:59.517Z,98225.00
2019-04-28T23:56:31.463Z,98226.80
2019-04-28T23:59:04.334Z,98218.98
